Time;durP1;ratioP1;P1;durP2;ratioP2;P2;SDS_P1;SDS_P2;PMS_P1;PMS_P2;Temp;Humidity;BMP_temperature;BMP_pressure;BME280_temperature;BME280_humidity;BME280_pressure;Samples;Min_cycle;Max_cycle;Signal;HPM_P1;HPM_P2
2022/03/31 00:00:49;;;;;;;0.20;0.20;;;;;;;13.72;90.46;98532.66;5102298;28;20023;-81
2022/03/31 00:03:19;;;;;;;0.20;0.20;;;;;;;13.66;90.93;98533.56;5095183;28;20032;-80
2022/03/31 00:05:46;;;;;;;0.20;0.20;;;;;;;13.75;91.20;98542.19;5086620;28;20039;-82
2022/03/31 00:08:14;;;;;;;0.20;0.20;;;;;;;13.68;91.33;98537.50;5084345;28;20020;-82
2022/03/31 00:10:49;;;;;;;0.20;0.20;;;;;;;13.51;92.01;98508.63;5080649;28;20035;-83
2022/03/31 00:13:20;;;;;;;0.20;0.20;;;;;;;13.74;91.48;98529.41;5082170;28;20050;-81
2022/03/31 00:15:46;;;;;;;0.20;0.20;;;;;;;13.80;91.52;98522.16;5088088;28;20028;-81
2022/03/31 00:18:14;;;;;;;0.20;0.20;;;;;;;13.74;92.19;98513.47;5084396;28;20085;-83
2022/03/31 00:20:46;;;;;;;0.20;0.20;;;;;;;13.89;92.56;98500.81;5082109;28;20028;-83
2022/03/31 00:23:11;;;;;;;0.20;0.20;;;;;;;13.79;92.57;98503.78;5080549;28;20410;-81
2022/03/31 00:25:37;;;;;;;0.20;0.20;;;;;;;13.73;93.11;98506.28;5080449;28;20036;-84
2022/03/31 00:28:03;;;;;;;0.20;0.20;;;;;;;13.71;93.58;98510.72;5078837;28;20024;-82
2022/03/31 00:30:30;;;;;;;0.20;0.20;;;;;;;13.97;92.90;98504.28;5085430;28;20011;-81
2022/03/31 00:33:00;;;;;;;0.20;0.20;;;;;;;13.99;92.83;98501.03;5114490;28;20024;-80
2022/03/31 00:35:29;;;;;;;0.20;0.20;;;;;;;14.12;92.85;98491.63;5090356;28;20091;-80
2022/03/31 00:37:57;;;;;;;0.20;0.20;;;;;;;14.21;92.94;98481.88;5091852;28;20028;-80
2022/03/31 00:40:27;;;;;;;0.20;0.20;;;;;;;14.23;93.02;98459.88;5096460;28;20391;-79
2022/03/31 00:42:57;;;;;;;0.20;0.20;;;;;;;14.36;92.77;98469.19;5098150;28;20012;-81
2022/03/31 00:45:33;;;;;;;0.20;0.20;;;;;;;14.43;92.72;98466.25;5099825;28;20024;-82
2022/03/31 00:47:59;;;;;;;0.20;0.20;;;;;;;14.47;92.30;98469.78;5098499;28;20028;-80
2022/03/31 00:50:26;;;;;;;0.20;0.20;;;;;;;14.46;92.61;98461.81;5096041;28;20043;-80
2022/03/31 00:52:52;;;;;;;0.20;0.20;;;;;;;14.57;91.45;98456.81;5098656;28;20015;-80
2022/03/31 00:55:19;;;;;;;0.20;0.20;;;;;;;14.59;91.38;98452.34;5097844;28;20060;-80
2022/03/31 00:57:46;;;;;;;0.20;0.20;;;;;;;14.59;91.00;98465.53;5101019;28;20130;-82
2022/03/31 01:00:14;;;;;;;0.20;0.20;;;;;;;14.45;91.27;98452.63;5100781;28;20024;-81
2022/03/31 01:02:43;;;;;;;0.20;0.20;;;;;;;14.56;91.06;98467.22;5096363;28;20467;-81
2022/03/31 01:05:10;;;;;;;0.20;0.20;;;;;;;14.58;91.13;98456.38;5083262;28;20016;-81
2022/03/31 01:07:40;;;;;;;0.20;0.20;;;;;;;14.54;92.00;98452.06;5100149;28;20012;-81
2022/03/31 01:10:08;;;;;;;0.20;0.20;;;;;;;14.53;92.01;98456.09;5101085;28;20020;-81
2022/03/31 01:12:36;;;;;;;0.20;0.20;;;;;;;14.47;92.22;98447.41;5084095;28;20034;-81
2022/03/31 01:15:15;;;;;;;0.30;0.30;;;;;;;14.43;92.94;98441.06;5100679;28;20036;-81
2022/03/31 01:17:42;;;;;;;0.20;0.20;;;;;;;14.47;92.50;98430.63;5100004;28;20050;-81
2022/03/31 01:20:11;;;;;;;0.20;0.20;;;;;;;14.47;92.85;98435.41;5100605;28;20028;-81
2022/03/31 01:22:37;;;;;;;0.20;0.20;;;;;;;14.38;94.05;98438.75;5100476;28;20032;-81
2022/03/31 01:25:10;;;;;;;0.20;0.20;;;;;;;14.40;93.88;98444.72;5099696;28;20028;-82
2022/03/31 01:27:40;;;;;;;0.20;0.20;;;;;;;14.37;94.22;98459.56;5100119;28;20032;-81
2022/03/31 01:30:11;;;;;;;0.20;0.20;;;;;;;14.29;95.17;98463.75;5099480;28;20016;-81
2022/03/31 01:32:36;;;;;;;0.30;0.30;;;;;;;14.29;96.05;98458.16;5097079;28;20036;-82
2022/03/31 01:35:04;;;;;;;0.20;0.20;;;;;;;14.18;96.66;98451.97;5099232;28;20036;-80
2022/03/31 01:37:30;;;;;;;0.20;0.20;;;;;;;14.15;97.29;98453.59;5083980;28;20022;-83
2022/03/31 01:39:59;;;;;;;0.20;0.20;;;;;;;13.99;98.39;98451.50;5101870;28;20080;-82
2022/03/31 01:42:28;;;;;;;0.20;0.20;;;;;;;13.99;98.87;98451.50;5101407;28;20015;-83
2022/03/31 01:44:54;;;;;;;0.20;0.20;;;;;;;14.06;99.15;98451.38;5101202;28;20012;-82
2022/03/31 01:47:20;;;;;;;0.20;0.20;;;;;;;13.94;99.47;98459.59;5101039;28;20032;-81
2022/03/31 01:49:45;;;;;;;0.20;0.20;;;;;;;14.01;99.60;98465.06;5099934;28;20035;-80
2022/03/31 01:52:11;;;;;;;0.30;0.30;;;;;;;14.00;100.00;98452.28;5095830;28;20032;-81
2022/03/31 01:54:41;;;;;;;0.20;0.20;;;;;;;13.89;100.00;98452.50;5096195;28;20044;-80
2022/03/31 01:57:10;;;;;;;0.20;0.20;;;;;;;13.77;100.00;98462.28;5098829;28;20050;-81
2022/03/31 01:59:42;;;;;;;0.20;0.20;;;;;;;13.79;100.00;98465.44;5083548;28;20039;-81
2022/03/31 02:02:10;;;;;;;0.20;0.20;;;;;;;13.71;100.00;98468.78;5100530;28;20031;-82
2022/03/31 02:04:40;;;;;;;0.20;0.20;;;;;;;13.76;100.00;98476.69;5100487;28;20266;-81
2022/03/31 02:07:07;;;;;;;0.20;0.20;;;;;;;13.76;100.00;98476.69;5097027;28;20016;-81
2022/03/31 02:09:33;;;;;;;0.20;0.20;;;;;;;13.70;100.00;98459.63;5100411;28;20043;-81
2022/03/31 02:11:59;;;;;;;0.20;0.20;;;;;;;13.75;100.00;98475.13;5084677;28;20024;-82
2022/03/31 02:14:28;;;;;;;0.20;0.20;;;;;;;13.77;100.00;98456.69;5084247;28;20035;-81
2022/03/31 02:16:58;;;;;;;0.20;0.20;;;;;;;13.72;100.00;98464.78;5117050;28;20058;-80
2022/03/31 02:19:24;;;;;;;0.30;0.30;;;;;;;13.67;100.00;98460.47;5082421;28;20032;-80
2022/03/31 02:21:55;;;;;;;0.20;0.20;;;;;;;13.62;100.00;98467.31;5095322;28;20056;-80
2022/03/31 02:24:21;;;;;;;0.20;0.20;;;;;;;13.73;100.00;98469.16;5095607;28;20470;-81
2022/03/31 02:26:49;;;;;;;0.20;0.20;;;;;;;13.73;100.00;98467.13;5094019;28;20058;-80
2022/03/31 02:29:18;;;;;;;0.20;0.20;;;;;;;13.72;100.00;98462.78;5094681;28;20024;-80
2022/03/31 02:31:46;;;;;;;0.20;0.20;;;;;;;13.74;100.00;98448.38;5094515;28;20058;-79
2022/03/31 02:34:13;;;;;;;0.20;0.20;;;;;;;13.73;100.00;98436.41;5095428;28;20020;-79
2022/03/31 02:36:40;;;;;;;0.20;0.20;;;;;;;13.70;100.00;98431.69;5098324;28;20074;-80
2022/03/31 02:39:06;;;;;;;0.20;0.20;;;;;;;13.68;99.98;98442.47;5097998;28;20060;-80
2022/03/31 02:41:35;;;;;;;0.20;0.20;;;;;;;13.78;99.90;98446.31;5101359;28;20035;-80
2022/03/31 02:44:02;;;;;;;0.30;0.30;;;;;;;13.71;100.00;98440.84;5096711;28;20028;-79
2022/03/31 02:46:31;;;;;;;0.20;0.20;;;;;;;13.68;100.00;98448.06;5090439;28;20085;-79
2022/03/31 02:48:59;;;;;;;0.20;0.20;;;;;;;13.42;100.00;98424.56;5093018;28;20378;-79
2022/03/31 02:51:25;;;;;;;0.20;0.20;;;;;;;13.62;100.00;98450.56;5110082;28;20028;-77
2022/03/31 02:56:39;;;;;;;0.20;0.20;;;;;;;13.60;100.00;98436.22;5112054;28;20043;-79
2022/03/31 02:59:10;;;;;;;0.20;0.20;;;;;;;13.53;100.00;98429.97;5092139;28;20056;-79
2022/03/31 03:01:42;;;;;;;0.20;0.20;;;;;;;13.51;100.00;98440.78;5091623;28;20036;-80
2022/03/31 03:04:08;;;;;;;0.20;0.20;;;;;;;13.48;100.00;98445.22;5091785;28;20028;-79
2022/03/31 03:06:33;;;;;;;0.20;0.20;;;;;;;13.52;100.00;98433.97;5090521;28;20028;-79
2022/03/31 03:08:59;;;;;;;0.20;0.20;;;;;;;13.42;100.00;98420.97;5088413;28;20054;-79
2022/03/31 03:11:25;;;;;;;0.20;0.20;;;;;;;13.47;100.00;98417.69;5089319;28;20024;-79
2022/03/31 03:13:56;;;;;;;0.20;0.20;;;;;;;13.40;100.00;98404.66;5088677;28;20399;-79
2022/03/31 03:16:24;;;;;;;0.30;0.30;;;;;;;13.37;100.00;98416.69;5089641;28;20028;-80
2022/03/31 03:18:52;;;;;;;0.20;0.20;;;;;;;13.25;100.00;98406.09;5090424;28;20023;-79
2022/03/31 03:21:19;;;;;;;0.20;0.20;;;;;;;13.23;100.00;98409.31;5089866;28;20032;-80
2022/03/31 03:23:46;;;;;;;0.20;0.20;;;;;;;13.23;100.00;98411.31;5089561;28;20032;-79
2022/03/31 03:26:12;;;;;;;0.20;0.20;;;;;;;13.19;100.00;98416.13;5089844;28;20024;-79
2022/03/31 03:28:41;;;;;;;0.20;0.20;;;;;;;13.16;100.00;98412.19;5090058;28;20058;-80
2022/03/31 03:31:08;;;;;;;0.20;0.20;;;;;;;13.18;100.00;98412.56;5108651;28;20107;-80
2022/03/31 03:33:34;;;;;;;0.20;0.20;;;;;;;13.26;100.00;98418.84;5091531;28;20027;-80
2022/03/31 03:36:02;;;;;;;0.30;0.30;;;;;;;13.35;100.00;98413.50;5090914;28;20061;-79
2022/03/31 03:38:28;;;;;;;0.20;0.20;;;;;;;13.37;100.00;98411.09;5106693;28;20020;-80
2022/03/31 03:40:56;;;;;;;0.20;0.20;;;;;;;13.39;100.00;98402.28;5087174;28;20055;-79
2022/03/31 03:43:28;;;;;;;0.20;0.20;;;;;;;13.33;99.84;98388.00;5088216;28;20024;-80
2022/03/31 03:45:57;;;;;;;0.20;0.20;;;;;;;13.41;99.95;98388.66;5089692;28;20043;-79
2022/03/31 03:48:25;;;;;;;0.20;0.20;;;;;;;13.42;100.00;98382.66;5087614;28;20066;-79
2022/03/31 03:50:51;;;;;;;0.20;0.20;;;;;;;13.40;100.00;98393.47;5090982;28;20036;-79
2022/03/31 03:53:20;;;;;;;0.20;0.20;;;;;;;13.41;100.00;98391.47;5085591;28;20100;-79
2022/03/31 03:55:49;;;;;;;0.20;0.20;;;;;;;13.40;100.00;98395.47;5085283;28;20051;-80
2022/03/31 03:58:23;;;;;;;0.20;0.20;;;;;;;13.39;100.00;98410.66;5072501;28;20028;-79
2022/03/31 04:00:56;;;;;;;0.20;0.20;;;;;;;13.32;100.00;98409.56;5086343;28;20055;-78
2022/03/31 04:03:27;;;;;;;0.20;0.20;;;;;;;13.34;100.00;98418.31;5105129;28;20085;-78
2022/03/31 04:05:56;;;;;;;0.20;0.20;;;;;;;13.35;100.00;98441.44;5088314;28;20386;-78
2022/03/31 04:08:23;;;;;;;0.20;0.20;;;;;;;13.37;100.00;98439.03;5087702;28;20081;-78
2022/03/31 04:10:52;;;;;;;0.20;0.20;;;;;;;13.35;100.00;98425.47;5088297;28;20028;-78
2022/03/31 04:13:20;;;;;;;0.20;0.20;;;;;;;13.41;100.00;98434.16;5088429;28;20035;-78
2022/03/31 04:15:48;;;;;;;0.20;0.20;;;;;;;13.34;100.00;98440.66;5088778;28;20028;-79
2022/03/31 04:18:14;;;;;;;0.20;0.20;;;;;;;13.35;100.00;98444.22;5087731;28;20024;-78
2022/03/31 04:20:42;;;;;;;0.20;0.20;;;;;;;13.31;100.00;98427.53;5088185;28;20050;-78
2022/03/31 04:23:13;;;;;;;0.20;0.20;;;;;;;13.21;100.00;98414.53;5087858;28;20035;-78
2022/03/31 04:25:41;;;;;;;0.20;0.20;;;;;;;13.30;100.00;98411.19;5087053;28;20506;-79
2022/03/31 04:28:13;;;;;;;0.20;0.20;;;;;;;13.29;100.00;98416.00;5086906;28;20043;-79
2022/03/31 04:30:42;;;;;;;0.20;0.20;;;;;;;13.18;100.00;98403.38;5087049;28;20028;-79
2022/03/31 04:33:08;;;;;;;0.20;0.20;;;;;;;13.15;99.67;98379.09;5087501;28;20020;-79
2022/03/31 04:35:36;;;;;;;0.20;0.20;;;;;;;13.27;100.00;98373.75;5087355;28;20036;-79
2022/03/31 04:38:05;;;;;;;0.20;0.20;;;;;;;13.21;99.87;98363.44;5087012;28;20028;-79
2022/03/31 04:40:32;;;;;;;0.20;0.20;;;;;;;13.11;100.00;98376.38;5090975;28;20032;-79
2022/03/31 04:42:58;;;;;;;0.20;0.20;;;;;;;13.22;100.00;98368.63;5086463;28;20044;-79
2022/03/31 04:45:24;;;;;;;0.20;0.20;;;;;;;13.20;100.00;98365.44;5104575;28;20028;-79
2022/03/31 04:47:50;;;;;;;0.20;0.20;;;;;;;13.22;99.51;98382.59;5086290;28;20390;-79
2022/03/31 04:50:18;;;;;;;0.20;0.20;;;;;;;13.25;99.40;98400.50;5087895;28;20042;-79
2022/03/31 04:52:49;;;;;;;0.20;0.20;;;;;;;13.15;99.75;98401.44;5086573;28;20053;-79
2022/03/31 04:55:17;;;;;;;0.20;0.20;;;;;;;13.16;99.83;98401.03;5086936;28;20455;-80
2022/03/31 04:57:43;;;;;;;0.20;0.20;;;;;;;13.17;99.08;98408.19;5086379;28;20036;-80
2022/03/31 05:00:13;;;;;;;0.20;0.20;;;;;;;13.01;98.87;98388.50;5088963;28;20032;-79
2022/03/31 05:02:43;;;;;;;0.20;0.20;;;;;;;13.06;98.73;98402.78;5099683;28;20042;-79
2022/03/31 05:05:09;;;;;;;0.20;0.20;;;;;;;12.95;99.85;98410.53;5085143;28;20028;-79
2022/03/31 05:07:36;;;;;;;0.20;0.20;;;;;;;12.80;99.64;98417.53;5086291;28;20450;-80
2022/03/31 05:10:01;;;;;;;0.20;0.20;;;;;;;12.85;100.00;98419.84;5085550;28;20042;-79
2022/03/31 05:12:29;;;;;;;0.20;0.20;;;;;;;12.80;100.00;98406.34;5084627;28;20107;-79
2022/03/31 05:14:55;;;;;;;0.20;0.20;;;;;;;12.74;100.00;98391.31;5083873;28;20035;-79
2022/03/31 05:17:27;;;;;;;0.20;0.20;;;;;;;12.74;100.00;98383.72;5084309;28;20063;-79
2022/03/31 05:19:52;;;;;;;0.20;0.20;;;;;;;12.75;100.00;98381.72;5085202;28;20034;-79
2022/03/31 05:22:18;;;;;;;0.20;0.20;;;;;;;12.82;100.00;98387.97;5086128;28;20091;-80
2022/03/31 05:24:47;;;;;;;0.20;0.20;;;;;;;12.75;100.00;98376.13;5086663;28;20085;-78
2022/03/31 05:27:12;;;;;;;0.20;0.20;;;;;;;12.81;100.00;98391.19;5085572;28;20067;-79
2022/03/31 05:29:38;;;;;;;0.20;0.20;;;;;;;12.71;100.00;98386.56;5085710;28;20371;-78
2022/03/31 05:32:07;;;;;;;0.20;0.20;;;;;;;12.78;100.00;98380.84;5084664;28;20028;-78
2022/03/31 05:34:35;;;;;;;0.20;0.20;;;;;;;12.76;100.00;98386.06;5085897;28;20043;-79
2022/03/31 05:37:05;;;;;;;0.20;0.20;;;;;;;12.77;100.00;98390.44;5086754;28;20107;-79
2022/03/31 05:39:36;;;;;;;0.20;0.20;;;;;;;12.77;100.00;98390.44;5086112;28;20040;-80
2022/03/31 05:42:08;;;;;;;0.20;0.20;;;;;;;12.76;100.00;98394.44;5086011;28;20059;-80
2022/03/31 05:44:33;;;;;;;0.20;0.20;;;;;;;12.72;100.00;98393.72;5084985;28;20028;-80
2022/03/31 05:47:02;;;;;;;0.20;0.20;;;;;;;12.70;100.00;98390.56;5086784;28;20091;-80
2022/03/31 05:49:28;;;;;;;0.20;0.20;;;;;;;12.64;100.00;98386.66;5086086;28;20050;-80
2022/03/31 05:51:54;;;;;;;0.20;0.20;;;;;;;12.64;100.00;98383.88;5086008;28;20028;-80
2022/03/31 05:54:19;;;;;;;0.20;0.20;;;;;;;12.63;100.00;98385.09;5084103;28;20048;-80
2022/03/31 05:56:45;;;;;;;0.20;0.20;;;;;;;12.62;100.00;98389.84;5084778;28;20479;-79
2022/03/31 05:59:11;;;;;;;0.20;0.20;;;;;;;12.64;100.00;98397.81;5085244;28;20024;-79
2022/03/31 06:01:37;;;;;;;0.20;0.20;;;;;;;12.57;100.00;98396.72;5086452;28;20378;-79
2022/03/31 06:04:05;;;;;;;0.20;0.20;;;;;;;12.55;100.00;98390.75;5088196;28;20110;-78
2022/03/31 06:06:37;;;;;;;0.20;0.20;;;;;;;12.69;100.00;98389.78;5084582;28;20058;-78
2022/03/31 06:09:09;;;;;;;0.20;0.20;;;;;;;12.69;100.00;98384.19;5069530;28;20061;-78
2022/03/31 06:11:34;;;;;;;0.20;0.20;;;;;;;12.71;100.00;98392.13;5106024;28;20028;-78
2022/03/31 06:14:02;;;;;;;0.20;0.20;;;;;;;12.76;100.00;98388.88;5089378;28;20115;-78
2022/03/31 06:16:28;;;;;;;0.20;0.20;;;;;;;12.69;100.00;98395.34;5089573;28;20047;-78
2022/03/31 06:18:54;;;;;;;0.20;0.20;;;;;;;12.77;100.00;98390.44;5099435;28;20082;-79
2022/03/31 06:21:22;;;;;;;0.20;0.20;;;;;;;12.83;100.00;98389.53;5088762;28;20020;-79
2022/03/31 06:23:51;;;;;;;0.20;0.20;;;;;;;12.79;100.00;98379.66;5090528;28;20062;-79
2022/03/31 06:26:17;;;;;;;0.20;0.20;;;;;;;12.84;100.00;98379.97;5090847;28;20047;-78
2022/03/31 06:28:42;;;;;;;0.20;0.20;;;;;;;12.77;100.00;98379.28;5089236;28;20036;-79
2022/03/31 06:31:11;;;;;;;0.20;0.20;;;;;;;12.84;100.00;98373.63;5086936;28;20120;-78
2022/03/31 06:33:40;;;;;;;0.20;0.20;;;;;;;12.69;100.00;98369.44;5087047;28;20092;-79
2022/03/31 06:36:08;;;;;;;0.20;0.20;;;;;;;12.84;100.00;98373.63;5087829;28;20090;-79
2022/03/31 06:38:36;;;;;;;0.20;0.20;;;;;;;12.84;100.00;98373.63;5089350;28;20096;-79
2022/03/31 06:41:10;;;;;;;0.20;0.20;;;;;;;12.94;100.00;98372.63;5073710;28;20031;-79
2022/03/31 06:43:41;;;;;;;0.20;0.20;;;;;;;12.87;100.00;98364.38;5091115;28;20066;-79
2022/03/31 06:46:10;;;;;;;0.20;0.20;;;;;;;12.94;100.00;98367.03;5088461;28;20069;-79
2022/03/31 06:48:37;;;;;;;0.20;0.20;;;;;;;12.84;100.00;98366.03;5091667;28;20169;-79
2022/03/31 06:51:04;;;;;;;0.30;0.30;;;;;;;12.87;100.00;98372.75;5093727;28;20039;-80
2022/03/31 06:53:30;;;;;;;0.20;0.20;;;;;;;12.88;100.00;98373.53;5092660;28;20024;-79
2022/03/31 06:55:57;;;;;;;0.20;0.20;;;;;;;12.92;99.83;98358.31;5096830;28;20078;-80
2022/03/31 06:58:26;;;;;;;0.20;0.20;;;;;;;12.98;99.63;98362.22;5092325;28;20024;-79
2022/03/31 07:00:53;;;;;;;0.20;0.20;;;;;;;12.95;99.48;98367.88;5106818;28;20044;-79
2022/03/31 07:03:24;;;;;;;0.20;0.20;;;;;;;12.92;99.57;98375.06;5087166;28;20020;-80
2022/03/31 07:05:53;;;;;;;0.20;0.20;;;;;;;12.91;99.68;98378.28;5088369;28;20028;-80
2022/03/31 07:08:19;;;;;;;0.20;0.20;;;;;;;12.96;99.30;98380.59;5087907;28;20027;-80
2022/03/31 07:10:45;;;;;;;0.20;0.20;;;;;;;12.91;99.13;98378.28;5090232;28;20028;-80
2022/03/31 07:13:36;;;;;;;0.20;0.20;;;;;;;13.00;99.35;98375.75;5089333;28;20062;-80
2022/03/31 07:16:01;;;;;;;0.20;0.20;;;;;;;12.98;99.49;98373.38;5105709;28;20490;-80
2022/03/31 07:18:27;;;;;;;0.20;0.20;;;;;;;12.93;100.00;98365.47;5084577;28;20031;-81
2022/03/31 07:20:52;;;;;;;0.20;0.20;;;;;;;12.96;99.85;98370.22;5085350;28;20032;-80
2022/03/31 07:23:20;;;;;;;0.20;0.20;;;;;;;13.15;99.17;98376.31;5087848;28;20058;-79
2022/03/31 07:25:51;;;;;;;0.20;0.20;;;;;;;13.16;98.59;98383.50;5087231;28;20028;-79
2022/03/31 07:28:17;;;;;;;0.20;0.20;;;;;;;13.13;98.66;98373.16;5088054;28;20035;-79
2022/03/31 07:30:42;;;;;;;0.20;0.20;;;;;;;13.08;98.62;98372.41;5086154;28;20028;-79
2022/03/31 07:33:11;;;;;;;0.20;0.20;;;;;;;13.05;98.75;98367.69;5085298;28;20024;-79
2022/03/31 07:35:37;;;;;;;0.20;0.20;;;;;;;13.20;99.27;98367.44;5084616;28;20032;-79
2022/03/31 07:38:04;;;;;;;0.20;0.20;;;;;;;13.21;99.10;98352.25;5084843;28;20028;-80
2022/03/31 07:40:30;;;;;;;0.20;0.20;;;;;;;13.33;98.66;98346.13;5084522;28;20062;-79
2022/03/31 07:42:57;;;;;;;0.20;0.20;;;;;;;13.42;97.67;98340.75;5087002;28;20501;-79
2022/03/31 07:45:25;;;;;;;0.20;0.20;;;;;;;13.42;97.63;98337.94;5088540;28;20031;-79
2022/03/31 07:47:50;;;;;;;0.20;0.20;;;;;;;13.59;97.28;98341.66;5089583;28;20028;-79
2022/03/31 07:50:18;;;;;;;0.30;0.30;;;;;;;13.60;96.61;98335.63;5090816;28;20030;-79
2022/03/31 07:52:44;;;;;;;0.20;0.20;;;;;;;13.59;96.88;98350.03;5108485;28;20051;-79
2022/03/31 07:55:15;;;;;;;0.20;0.20;;;;;;;13.66;96.80;98343.53;5072566;28;20048;-79
2022/03/31 07:57:41;;;;;;;0.20;0.20;;;;;;;13.28;95.14;98313.09;5088173;28;20039;-79
2022/03/31 08:00:09;;;;;;;0.20;0.20;;;;;;;13.67;95.61;98364.66;5090430;28;20074;-80
2022/03/31 08:02:50;;;;;;;0.20;0.20;;;;;;;13.56;96.28;98368.44;5089987;28;20082;-79
2022/03/31 08:05:19;;;;;;;0.20;0.20;;;;;;;13.62;96.38;98371.53;5084412;28;20058;-79
2022/03/31 08:07:48;;;;;;;0.20;0.20;;;;;;;13.61;96.15;98381.91;5086117;28;20032;-79
2022/03/31 08:10:17;;;;;;;0.20;0.20;;;;;;;13.63;96.34;98396.28;5087059;28;20036;-80
2022/03/31 08:12:45;;;;;;;0.20;0.20;;;;;;;13.52;96.33;98394.84;5087524;28;20032;-79
2022/03/31 08:15:12;;;;;;;0.20;0.20;;;;;;;13.46;96.55;98386.19;5090481;28;20020;-80
2022/03/31 08:17:41;;;;;;;0.20;0.20;;;;;;;13.43;96.86;98395.41;5089930;28;20096;-80
2022/03/31 08:20:14;;;;;;;0.20;0.20;;;;;;;13.46;96.91;98388.19;5090597;28;20081;-79
2022/03/31 08:22:40;;;;;;;0.20;0.20;;;;;;;13.47;96.71;98393.34;5076757;28;20032;-79
2022/03/31 08:25:08;;;;;;;0.20;0.20;;;;;;;13.49;96.75;98392.94;5094483;28;20055;-79
2022/03/31 08:27:36;;;;;;;0.20;0.20;;;;;;;13.46;96.67;98391.75;5088126;28;20024;-80
2022/03/31 08:30:09;;;;;;;0.20;0.20;;;;;;;13.48;96.50;98389.34;5088773;28;20042;-79
2022/03/31 08:32:43;;;;;;;0.20;0.20;;;;;;;13.42;97.00;98395.81;5085322;28;20048;-79
2022/03/31 08:35:14;;;;;;;0.20;0.20;;;;;;;13.57;96.94;98397.16;5086287;28;20058;-80
2022/03/31 08:37:44;;;;;;;0.20;0.20;;;;;;;13.49;97.09;98395.72;5090750;28;20024;-79
2022/03/31 08:40:14;;;;;;;0.20;0.20;;;;;;;13.50;97.41;98380.53;5093567;28;20032;-79
2022/03/31 08:42:40;;;;;;;0.20;0.20;;;;;;;13.39;96.75;98379.94;5095600;28;20020;-79
2022/03/31 08:45:12;;;;;;;0.20;0.20;;;;;;;13.38;97.59;98367.97;5094781;28;20039;-78
2022/03/31 08:47:40;;;;;;;0.20;0.20;;;;;;;13.47;98.03;98370.19;5093374;28;20054;-79
2022/03/31 08:50:07;;;;;;;0.20;0.20;;;;;;;13.35;97.99;98374.41;5076445;28;20035;-79
2022/03/31 08:52:33;;;;;;;0.20;0.20;;;;;;;13.32;99.44;98358.50;5094069;28;20035;-79
2022/03/31 08:54:58;;;;;;;0.20;0.20;;;;;;;13.34;99.96;98367.25;5093963;28;20048;-79
2022/03/31 08:57:42;;;;;;;0.20;0.20;;;;;;;13.31;100.00;98380.03;5095530;28;20028;-80
2022/03/31 09:00:09;;;;;;;0.20;0.20;;;;;;;13.38;100.00;98386.75;5094726;28;20024;-79
2022/03/31 09:02:37;;;;;;;0.20;0.20;;;;;;;13.43;100.00;98383.47;5095219;28;20031;-80
2022/03/31 09:05:05;;;;;;;0.20;0.20;;;;;;;13.43;100.00;98375.88;5093574;28;20063;-80
2022/03/31 09:07:30;;;;;;;0.20;0.20;;;;;;;13.18;100.00;98379.03;5094453;28;20028;-79
2022/03/31 09:09:59;;;;;;;0.20;0.20;;;;;;;13.23;100.00;98380.59;5093530;28;20039;-79
2022/03/31 09:12:44;;;;;;;0.20;0.20;;;;;;;13.17;100.00;98371.88;5092478;28;20024;-79
2022/03/31 09:15:12;;;;;;;0.20;0.20;;;;;;;13.19;100.00;98379.84;5093903;28;20039;-79
2022/03/31 09:17:39;;;;;;;0.20;0.20;;;;;;;13.10;100.00;98372.81;5092376;28;20044;-80
2022/03/31 09:20:08;;;;;;;0.20;0.20;;;;;;;12.80;100.00;98339.38;5088931;28;20031;-79
2022/03/31 09:22:49;;;;;;;0.20;0.20;;;;;;;13.04;100.00;98371.69;5073941;28;20062;-81
2022/03/31 09:25:32;;;;;;;0.20;0.20;;;;;;;13.03;100.00;98364.53;5092838;28;20131;-80
2022/03/31 09:28:00;;;;;;;0.20;0.20;;;;;;;13.12;100.00;98372.38;5111856;28;20031;-80
2022/03/31 09:30:27;;;;;;;0.20;0.20;;;;;;;12.98;100.00;98356.63;5094539;28;20485;-80
2022/03/31 09:32:56;;;;;;;0.20;0.20;;;;;;;12.98;100.00;98365.00;5113905;28;20106;-79
2022/03/31 09:35:25;;;;;;;0.20;0.20;;;;;;;13.02;100.00;98351.00;5093652;28;20028;-80
2022/03/31 09:37:54;;;;;;;0.20;0.20;;;;;;;13.03;100.00;98346.97;5091845;28;20012;-79
2022/03/31 09:40:20;;;;;;;0.20;0.20;;;;;;;12.89;100.00;98347.19;5075892;28;20032;-80
2022/03/31 09:43:01;;;;;;;0.20;0.20;;;;;;;12.98;100.00;98350.25;5093410;28;20039;-80
2022/03/31 09:45:38;;;;;;;0.20;0.20;;;;;;;13.03;100.00;98344.97;5094374;28;20035;-80
2022/03/31 09:48:05;;;;;;;0.20;0.20;;;;;;;13.03;100.00;98344.19;5101202;28;20032;-80
2022/03/31 09:50:36;;;;;;;0.20;0.20;;;;;;;12.99;100.00;98333.06;5100666;28;20031;-80
2022/03/31 09:53:03;;;;;;;0.20;0.20;;;;;;;13.01;100.00;98349.41;5118303;28;20028;-80
2022/03/31 09:55:31;;;;;;;0.20;0.20;;;;;;;12.99;100.00;98340.66;5118661;28;20060;-80
2022/03/31 09:57:57;;;;;;;0.20;0.20;;;;;;;13.12;100.00;98338.84;5084161;28;20095;-79
2022/03/31 10:00:27;;;;;;;0.20;0.20;;;;;;;13.09;100.00;98340.47;5099653;28;20032;-79
2022/03/31 10:02:55;;;;;;;0.20;0.20;;;;;;;13.18;100.00;98339.16;5116895;28;20379;-80
2022/03/31 10:05:22;;;;;;;0.20;0.20;;;;;;;13.15;100.00;98332.41;5100735;28;20044;-80
2022/03/31 10:07:48;;;;;;;0.20;0.20;;;;;;;13.09;100.00;98340.47;5099217;28;20055;-79
2022/03/31 10:10:16;;;;;;;0.20;0.20;;;;;;;13.10;100.00;98330.09;5099359;28;20008;-79
2022/03/31 10:13:22;;;;;;;0.20;0.20;;;;;;;12.92;100.00;98336.00;5097776;28;20036;-79
2022/03/31 10:16:04;;;;;;;0.20;0.20;;;;;;;12.94;100.00;98333.56;5092710;28;20039;-80
2022/03/31 10:18:30;;;;;;;0.20;0.20;;;;;;;13.00;100.00;98334.69;5094267;28;20058;-79
2022/03/31 10:20:58;;;;;;;0.20;0.20;;;;;;;12.87;100.00;98322.50;5093301;28;20024;-80
2022/03/31 10:26:28;;;;;;;0.20;0.20;;;;;;;12.70;100.00;98312.44;5114256;28;20374;-80
2022/03/31 10:29:00;;;;;;;0.20;0.20;;;;;;;12.63;100.00;98326.50;5093830;28;20057;-79
2022/03/31 10:31:43;;;;;;;0.20;0.20;;;;;;;12.74;100.00;98327.13;5096580;28;20043;-79
2022/03/31 10:34:11;;;;;;;0.20;0.20;;;;;;;12.67;100.00;98335.59;5094820;28;20051;-79
2022/03/31 10:36:48;;;;;;;0.20;0.20;;;;;;;12.74;100.00;98341.06;5096274;28;20098;-79
2022/03/31 10:39:24;;;;;;;0.20;0.20;;;;;;;12.71;100.00;98336.31;5113235;28;20047;-79
2022/03/31 10:42:08;;;;;;;0.20;0.20;;;;;;;12.72;100.00;98332.31;5094279;28;20020;-79
2022/03/31 10:44:34;;;;;;;;;;;;;;;12.68;100.00;98332.38;5114114;28;20078;-80
2022/03/31 10:47:09;;;;;;;0.20;0.20;;;;;;;12.59;100.00;98321.75;5095266;28;19912;-81
2022/03/31 10:49:37;;;;;;;0.20;0.20;;;;;;;12.63;100.00;98323.72;5113736;28;20031;-79
2022/03/31 10:52:23;;;;;;;0.20;0.20;;;;;;;12.72;100.00;98327.53;5096245;28;20024;-80
2022/03/31 10:54:52;;;;;;;0.20;0.20;;;;;;;12.67;100.00;98313.25;5094709;28;20115;-79
2022/03/31 10:57:18;;;;;;;0.20;0.20;;;;;;;12.61;100.00;98309.38;5095604;28;20039;-79
2022/03/31 10:59:49;;;;;;;0.20;0.20;;;;;;;12.80;100.00;98322.63;5115343;28;20051;-79
2022/03/31 11:02:20;;;;;;;0.20;0.20;;;;;;;12.68;100.00;98310.06;5095742;28;20028;-79
2022/03/31 11:04:54;;;;;;;0.20;0.20;;;;;;;12.79;100.00;98316.25;5094647;28;20046;-79
2022/03/31 11:07:24;;;;;;;0.20;0.20;;;;;;;12.78;100.00;98316.66;5113857;28;20016;-79
2022/03/31 11:09:59;;;;;;;0.20;0.20;;;;;;;12.80;100.00;98319.84;5093559;28;20051;-79
2022/03/31 11:12:28;;;;;;;0.20;0.20;;;;;;;12.84;100.00;98312.22;5094197;28;20079;-80
2022/03/31 11:15:00;;;;;;;0.20;0.20;;;;;;;12.81;100.00;98310.25;5092199;28;20031;-81
2022/03/31 11:17:30;;;;;;;0.20;0.20;;;;;;;12.87;100.00;98302.97;5096273;28;20027;-80
2022/03/31 11:19:58;;;;;;;0.20;0.20;;;;;;;12.90;100.00;98299.34;5095204;28;20028;-80
2022/03/31 11:22:29;;;;;;;0.20;0.20;;;;;;;12.78;100.00;98302.72;5083041;28;20028;-81
2022/03/31 11:25:07;;;;;;;0.20;0.20;;;;;;;12.78;100.00;98285.97;5085682;28;20028;-80
2022/03/31 11:27:37;;;;;;;0.20;0.20;;;;;;;12.86;100.00;98304.19;5099621;28;20087;-80
2022/03/31 11:30:09;;;;;;;0.20;0.20;;;;;;;12.96;100.00;98292.06;5099383;28;20060;-80
2022/03/31 11:32:36;;;;;;;0.20;0.20;;;;;;;12.98;99.40;98286.84;5098980;28;20031;-80
2022/03/31 11:35:09;;;;;;;0.20;0.20;;;;;;;12.92;98.73;98274.56;5096878;28;20032;-80
2022/03/31 11:38:10;;;;;;;0.20;0.20;;;;;;;13.03;98.02;98286.34;5115507;28;20068;-81
2022/03/31 11:40:41;;;;;;;0.20;0.20;;;;;;;12.98;97.33;98270.09;5099609;28;20028;-80
2022/03/31 11:43:13;;;;;;;0.20;0.20;;;;;;;13.04;97.41;98276.75;5098805;28;20020;-81